Time;durP1;ratioP1;P1;durP2;ratioP2;P2;SDS_P1;SDS_P2;PMS_P1;PMS_P2;Temp;Humidity;BMP_temperature;BMP_pressure;BME280_temperature;BME280_humidity;BME280_pressure;Samples;Min_cycle;Max_cycle;Signal;HPM_P1;HPM_P2
2023/05/29 00:01:10;;;;;;;;;;;;;;;24.61;34.08;101423.50;4145254;28;20339;-66
2023/05/29 00:03:12;;;;;;;;;;;;;;;24.60;33.96;101424.47;4146017;28;20020;-66
2023/05/29 00:05:15;;;;;;;;;;;;;;;24.59;33.94;101425.44;4146057;28;20391;-66
2023/05/29 00:07:16;;;;;;;;;;;;;;;24.57;34.17;101428.28;4145868;28;19926;-66
2023/05/29 00:09:18;;;;;;;;;;;;;;;24.57;33.87;101428.28;4145626;28;20012;-66
2023/05/29 00:11:20;;;;;;;;;;;;;;;24.54;34.01;101432.03;4144867;28;19929;-66
2023/05/29 00:13:22;;;;;;;;;;;;;;;24.55;34.31;101432.91;4145919;28;19926;-66
2023/05/29 00:15:23;;;;;;;;;;;;;;;24.53;34.06;101425.00;4145754;28;20020;-66
2023/05/29 00:17:25;;;;;;;;;;;;;;;24.52;34.18;101438.53;4146196;28;19932;-66
2023/05/29 00:19:27;;;;;;;;;;;;;;;24.52;34.18;101438.53;4146160;28;20382;-67
2023/05/29 00:21:28;;;;;;;;;;;;;;;24.52;34.24;101433.16;4144907;28;19926;-66
2023/05/29 00:23:30;;;;;;;;;;;;;;;24.51;33.94;101443.06;4144131;28;20016;-66
2023/05/29 00:25:31;;;;;;;;;;;;;;;24.51;34.24;101436.81;4146029;28;19979;-66
2023/05/29 00:27:33;;;;;;;;;;;;;;;24.49;34.32;101433.44;4145430;28;19932;-66
2023/05/29 00:29:37;;;;;;;;;;;;;;;24.48;34.26;101440.63;4146045;28;19926;-66
2023/05/29 00:31:39;;;;;;;;;;;;;;;24.47;34.25;101438.91;4144153;28;20387;-66
2023/05/29 00:33:41;;;;;;;;;;;;;;;24.48;34.24;101447.84;4148843;28;19925;-66
2023/05/29 00:35:42;;;;;;;;;;;;;;;24.46;34.14;101436.38;4162290;28;19932;-66
2023/05/29 00:37:44;;;;;;;;;;;;;;;24.46;34.13;101439.06;4161094;28;19925;-66
2023/05/29 00:39:45;;;;;;;;;;;;;;;24.45;34.02;101437.34;4145556;28;19926;-66
2023/05/29 00:41:50;;;;;;;;;;;;;;;24.44;34.28;101428.44;4144552;28;19926;-66
2023/05/29 00:43:52;;;;;;;;;;;;;;;24.43;33.99;101429.41;4145836;28;19929;-66
2023/05/29 00:45:53;;;;;;;;;;;;;;;24.43;34.21;101424.03;4145412;28;19925;-67
2023/05/29 00:47:55;;;;;;;;;;;;;;;24.40;34.21;101424.31;4145649;28;19926;-67
2023/05/29 00:49:57;;;;;;;;;;;;;;;24.39;34.49;101423.44;4145764;28;19964;-66
2023/05/29 00:51:58;;;;;;;;;;;;;;;24.39;34.22;101425.28;4144217;28;19926;-66
2023/05/29 00:54:00;;;;;;;;;;;;;;;24.37;34.12;101425.38;4144497;28;19930;-66
2023/05/29 00:56:02;;;;;;;;;;;;;;;24.36;34.43;101431.78;4144292;28;19929;-66
2023/05/29 00:58:04;;;;;;;;;;;;;;;24.36;34.30;101430.91;4145578;28;20008;-65
2023/05/29 01:00:13;;;;;;;;;;;;;;;24.33;34.19;101415.88;4145421;28;19964;-66
2023/05/29 01:02:16;;;;;;;;;;;;;;;24.33;34.44;101413.19;4144337;28;20028;-65
2023/05/29 01:04:18;;;;;;;;;;;;;;;24.33;34.12;101415.03;4145542;28;19932;-65
2023/05/29 01:06:20;;;;;;;;;;;;;;;24.32;34.48;101418.72;4145099;28;19934;-66
2023/05/29 01:08:22;;;;;;;;;;;;;;;24.31;34.32;101422.38;4145362;28;20379;-65
2023/05/29 01:10:23;;;;;;;;;;;;;;;24.29;34.26;101419.81;4145196;28;19947;-65
2023/05/29 01:12:47;;;;;;;;;;;;;;;24.29;34.05;101419.81;4144119;28;19925;-64
2023/05/29 01:15:03;;;;;;;;;;;;;;;24.28;34.56;101411.88;4145251;28;19971;-66
2023/05/29 01:17:25;;;;;;;;;;;;;;;24.26;34.27;101420.06;4143822;28;19932;-66
2023/05/29 01:19:53;;;;;;;;;;;;;;;24.26;34.42;101411.16;4144041;28;19934;-66
2023/05/29 01:22:03;;;;;;;;;;;;;;;24.23;34.48;101407.72;4143947;28;20020;-65
2023/05/29 01:24:05;;;;;;;;;;;;;;;24.23;34.30;101409.56;4144019;28;19926;-66
2023/05/29 01:26:15;;;;;;;;;;;;;;;24.22;34.33;101399.81;4144876;28;19964;-66
2023/05/29 01:28:20;;;;;;;;;;;;;;;24.20;34.29;101405.28;4145114;28;20013;-66
2023/05/29 01:30:23;;;;;;;;;;;;;;;24.20;34.62;101416.03;4145091;28;19932;-66
2023/05/29 01:32:26;;;;;;;;;;;;;;;24.19;34.31;101410.78;4144118;28;19960;-66
2023/05/29 01:34:28;;;;;;;;;;;;;;;24.18;34.37;101409.94;4154412;28;19929;-66
2023/05/29 01:36:30;;;;;;;;;;;;;;;24.17;34.60;101410.06;4160925;28;20405;-66
2023/05/29 01:38:31;;;;;;;;;;;;;;;24.16;34.56;101411.06;4154277;28;20092;-65
2023/05/29 01:40:33;;;;;;;;;;;;;;;24.15;34.49;101412.03;4144900;28;19925;-66
2023/05/29 01:42:35;;;;;;;;;;;;;;;24.14;34.57;101416.53;4143921;28;19926;-66
2023/05/29 01:44:37;;;;;;;;;;;;;;;24.13;34.75;101411.31;4145352;28;19957;-66
2023/05/29 01:46:40;;;;;;;;;;;;;;;24.11;34.72;101410.56;4147757;28;19932;-66
2023/05/29 01:48:42;;;;;;;;;;;;;;;24.11;34.52;101414.13;4147839;28;19957;-66
2023/05/29 01:50:45;;;;;;;;;;;;;;;24.09;34.77;101416.91;4147613;28;19925;-66
2023/05/29 01:52:47;;;;;;;;;;;;;;;24.09;34.66;101410.69;4146826;28;19936;-65
2023/05/29 01:54:48;;;;;;;;;;;;;;;24.06;34.59;101425.25;4147986;28;19980;-65
2023/05/29 01:56:51;;;;;;;;;;;;;;;24.06;34.66;101413.66;4147851;28;19973;-66
2023/05/29 01:58:52;;;;;;;;;;;;;;;24.06;34.77;101411.81;4147674;28;19926;-65
2023/05/29 02:00:55;;;;;;;;;;;;;;;24.04;34.39;101421.81;4147507;28;20017;-66
2023/05/29 02:02:57;;;;;;;;;;;;;;;24.03;34.74;101420.09;4147181;28;20035;-65
2023/05/29 02:04:59;;;;;;;;;;;;;;;24.02;34.48;101421.13;4147282;28;19934;-65
2023/05/29 02:07:01;;;;;;;;;;;;;;;24.01;34.70;101418.53;4147486;28;19929;-66
2023/05/29 02:09:03;;;;;;;;;;;;;;;24.00;34.92;101417.69;4147508;28;19960;-65
2023/05/29 02:11:04;;;;;;;;;;;;;;;24.00;34.76;101423.06;4146924;28;20376;-66
2023/05/29 02:13:06;;;;;;;;;;;;;;;23.99;34.64;101418.66;4147327;28;20025;-66
2023/05/29 02:15:08;;;;;;;;;;;;;;;23.97;34.54;101426.00;4147381;28;19929;-65
2023/05/29 02:17:09;;;;;;;;;;;;;;;23.97;34.76;101419.78;4147256;28;19925;-65
2023/05/29 02:19:11;;;;;;;;;;;;;;;23.95;34.70;101413.66;4147282;28;19929;-66
2023/05/29 02:21:12;;;;;;;;;;;;;;;23.95;34.71;101417.22;4146626;28;19926;-66
2023/05/29 02:23:16;;;;;;;;;;;;;;;23.96;34.78;101426.13;4147234;28;20020;-66
2023/05/29 02:25:18;;;;;;;;;;;;;;;23.94;34.57;101426.25;4147511;28;19961;-66
2023/05/29 02:27:20;;;;;;;;;;;;;;;23.92;34.88;101420.97;4146706;28;20469;-65
2023/05/29 02:29:21;;;;;;;;;;;;;;;23.92;34.86;101428.16;4147227;28;20035;-65
2023/05/29 02:31:23;;;;;;;;;;;;;;;23.90;34.62;101424.75;4146478;28;20425;-67
2023/05/29 02:33:24;;;;;;;;;;;;;;;23.90;34.66;101433.69;4149745;28;20058;-66
2023/05/29 02:35:26;;;;;;;;;;;;;;;23.89;34.88;101433.78;4233097;27;19924;-66
2023/05/29 02:37:28;;;;;;;;;;;;;;;23.89;34.94;101423.03;4232959;28;20385;-66
2023/05/29 02:39:29;;;;;;;;;;;;;;;23.87;34.92;101428.53;4232850;28;19924;-66
2023/05/29 02:41:31;;;;;;;;;;;;;;;23.86;34.91;101426.81;4231821;28;20324;-66
2023/05/29 02:43:32;;;;;;;;;;;;;;;23.86;34.92;101421.44;4232724;28;20305;-65
2023/05/29 02:45:34;;;;;;;;;;;;;;;23.85;35.00;101425.16;4232721;28;19923;-66
2023/05/29 02:47:36;;;;;;;;;;;;;;;23.84;34.84;101436.00;4232410;27;20254;-66
2023/05/29 02:49:37;;;;;;;;;;;;;;;23.82;35.07;101428.06;4232741;28;19932;-65
2023/05/29 02:51:39;;;;;;;;;;;;;;;23.82;34.59;101435.28;4231555;28;19928;-65
2023/05/29 02:53:41;;;;;;;;;;;;;;;23.81;34.93;101428.19;4231197;28;19924;-66
2023/05/29 02:55:43;;;;;;;;;;;;;;;23.80;34.71;101427.31;4232305;28;19923;-66
2023/05/29 02:57:44;;;;;;;;;;;;;;;23.80;35.03;101430.00;4232667;28;20393;-65
2023/05/29 02:59:46;;;;;;;;;;;;;;;23.79;35.06;101436.34;4232641;27;19923;-65
2023/05/29 03:01:48;;;;;;;;;;;;;;;23.77;35.01;101433.81;4231370;28;19930;-64
2023/05/29 03:03:50;;;;;;;;;;;;;;;23.77;34.88;101439.19;4232368;28;20450;-65
2023/05/29 03:05:52;;;;;;;;;;;;;;;23.75;34.87;101429.53;4232680;28;19927;-65
2023/05/29 03:07:53;;;;;;;;;;;;;;;23.74;35.03;101436.75;4232223;28;19923;-66
2023/05/29 03:09:56;;;;;;;;;;;;;;;23.74;35.08;101438.56;4232330;28;19938;-65
2023/05/29 03:12:01;;;;;;;;;;;;;;;23.73;35.13;101442.22;4231619;28;19924;-65
2023/05/29 03:14:02;;;;;;;;;;;;;;;23.72;35.10;101441.38;4231067;28;20003;-65
2023/05/29 03:16:04;;;;;;;;;;;;;;;23.70;34.76;101451.38;4232328;28;19923;-65
2023/05/29 03:18:06;;;;;;;;;;;;;;;23.69;35.25;101444.31;4232033;28;19924;-65
2023/05/29 03:20:07;;;;;;;;;;;;;;;23.68;35.04;101453.38;4232323;28;20018;-64
2023/05/29 03:22:09;;;;;;;;;;;;;;;23.68;35.18;101458.72;4231037;28;19924;-65
2023/05/29 03:24:13;;;;;;;;;;;;;;;23.66;35.19;101444.56;4232373;28;19954;-67
2023/05/29 03:26:15;;;;;;;;;;;;;;;23.65;35.27;101448.22;4206780;28;19925;-66
2023/05/29 03:28:17;;;;;;;;;;;;;;;23.65;34.83;101452.75;4146389;28;20356;-66
2023/05/29 03:30:20;;;;;;;;;;;;;;;23.64;35.03;101454.56;4146426;28;20420;-67
2023/05/29 03:32:22;;;;;;;;;;;;;;;23.63;35.29;101454.69;4144962;28;19925;-66
2023/05/29 03:34:23;;;;;;;;;;;;;;;23.61;35.25;101450.28;4155272;28;20049;-66
2023/05/29 03:36:25;;;;;;;;;;;;;;;23.59;34.98;101457.59;4162601;28;19970;-67
2023/05/29 03:38:28;;;;;;;;;;;;;;;23.60;35.15;101462.00;4156069;28;19933;-66
2023/05/29 03:40:30;;;;;;;;;;;;;;;23.58;35.39;101455.06;4145431;28;20398;-66
2023/05/29 03:42:31;;;;;;;;;;;;;;;23.57;35.18;101459.59;4145323;28;20036;-66
2023/05/29 03:44:33;;;;;;;;;;;;;;;23.57;35.35;101464.06;4146183;28;19925;-66
2023/05/29 03:46:34;;;;;;;;;;;;;;;23.56;35.27;101463.25;4145902;28;19925;-67
2023/05/29 03:48:36;;;;;;;;;;;;;;;23.54;35.38;101457.13;4145944;28;19926;-66
2023/05/29 03:50:38;;;;;;;;;;;;;;;23.55;35.26;101466.03;4146539;28;19926;-66
2023/05/29 03:52:39;;;;;;;;;;;;;;;23.54;35.22;101458.97;4145093;28;19936;-66
2023/05/29 03:54:41;;;;;;;;;;;;;;;23.52;35.29;101464.44;4146317;28;19929;-66
2023/05/29 03:56:42;;;;;;;;;;;;;;;23.52;35.44;101460.91;4145178;28;20398;-66
2023/05/29 03:58:44;;;;;;;;;;;;;;;23.51;35.27;101469.94;4146081;28;19925;-66
2023/05/29 04:00:46;;;;;;;;;;;;;;;23.51;35.45;101472.63;4144639;28;19925;-66
2023/05/29 04:02:47;;;;;;;;;;;;;;;23.49;35.45;101464.69;4144956;28;20355;-66
2023/05/29 04:04:50;;;;;;;;;;;;;;;23.48;35.13;101471.03;4145934;28;19926;-66
2023/05/29 04:06:51;;;;;;;;;;;;;;;23.47;35.34;101473.84;4144190;28;19982;-66
2023/05/29 04:08:53;;;;;;;;;;;;;;;23.47;35.50;101479.22;4146096;28;19935;-66
2023/05/29 04:10:54;;;;;;;;;;;;;;;23.47;35.32;101482.75;4145966;28;19972;-66
2023/05/29 04:12:56;;;;;;;;;;;;;;;23.45;35.50;101485.56;4144722;28;19976;-66
2023/05/29 04:14:58;;;;;;;;;;;;;;;23.44;35.27;101486.53;4145654;28;19929;-66
2023/05/29 04:16:59;;;;;;;;;;;;;;;23.44;35.20;101494.59;4145959;28;19929;-66
2023/05/29 04:19:01;;;;;;;;;;;;;;;23.43;35.24;101495.56;4145938;28;19929;-66
2023/05/29 04:21:03;;;;;;;;;;;;;;;23.42;35.25;101501.88;4145986;28;19925;-66
2023/05/29 04:23:04;;;;;;;;;;;;;;;23.41;35.40;101500.19;4144947;28;19926;-66
2023/05/29 04:25:06;;;;;;;;;;;;;;;23.40;35.28;101501.19;4145737;28;19945;-66
2023/05/29 04:27:08;;;;;;;;;;;;;;;23.40;35.38;101508.34;4145838;28;19978;-66
2023/05/29 04:29:12;;;;;;;;;;;;;;;23.39;35.51;101507.50;4145206;28;20012;-66
2023/05/29 04:31:16;;;;;;;;;;;;;;;23.38;35.51;101507.59;4145852;28;19932;-66
2023/05/29 04:33:18;;;;;;;;;;;;;;;23.37;35.42;101509.47;4144842;28;20012;-66
2023/05/29 04:35:21;;;;;;;;;;;;;;;23.37;35.58;101506.78;4129751;28;20038;-66
2023/05/29 04:37:28;;;;;;;;;;;;;;;23.36;35.44;101518.47;4129547;28;19948;-66
2023/05/29 04:39:31;;;;;;;;;;;;;;;23.36;35.68;101525.69;4223205;28;20471;-66
2023/05/29 04:41:32;;;;;;;;;;;;;;;23.34;35.64;101525.78;4230151;28;19966;-66
2023/05/29 04:43:36;;;;;;;;;;;;;;;23.34;35.70;101530.31;4230518;28;19931;-66
2023/05/29 04:45:37;;;;;;;;;;;;;;;23.33;35.52;101533.97;4231033;28;19931;-66
2023/05/29 04:47:49;;;;;;;;;;;;;;;23.33;35.39;101540.19;4230896;28;19923;-66
2023/05/29 04:49:51;;;;;;;;;;;;;;;23.32;35.47;101543.84;4230756;28;20077;-66
2023/05/29 04:51:53;;;;;;;;;;;;;;;23.32;35.43;101549.22;4229785;28;20238;-66
2023/05/29 04:53:55;;;;;;;;;;;;;;;23.31;35.27;101549.31;4229402;28;19930;-66
2023/05/29 04:55:57;;;;;;;;;;;;;;;23.31;35.47;101546.63;4230832;28;20018;-66
2023/05/29 04:57:58;;;;;;;;;;;;;;;23.31;35.70;101543.94;4230196;28;20018;-66
2023/05/29 05:00:00;;;;;;;;;;;;;;;23.28;35.73;101545.03;4263612;27;20018;-66
2023/05/29 05:02:01;;;;;;;;;;;;;;;23.27;35.64;101544.19;4230005;28;19943;-66
2023/05/29 05:04:03;;;;;;;;;;;;;;;23.27;35.35;101562.16;4229397;28;19969;-66
2023/05/29 05:06:07;;;;;;;;;;;;;;;23.15;35.79;101529.00;4230912;28;20292;-66
2023/05/29 05:08:09;;;;;;;;;;;;;;;23.26;35.38;101549.69;4230875;28;20018;-66
2023/05/29 05:10:11;;;;;;;;;;;;;;;23.24;35.69;101549.78;4230589;28;19924;-66
2023/05/29 05:12:13;;;;;;;;;;;;;;;23.23;35.53;101548.09;4229761;28;19988;-66
2023/05/29 05:14:14;;;;;;;;;;;;;;;23.21;35.64;101543.81;4230134;28;19986;-66
2023/05/29 05:16:16;;;;;;;;;;;;;;;23.22;35.68;101549.06;4230755;28;19928;-66
2023/05/29 05:18:18;;;;;;;;;;;;;;;23.21;35.61;101549.16;4230441;28;19980;-66
2023/05/29 05:20:19;;;;;;;;;;;;;;;23.19;35.54;101543.94;4230671;28;20044;-66
2023/05/29 05:22:21;;;;;;;;;;;;;;;23.19;35.92;101551.97;4229317;28;20285;-65
2023/05/29 05:24:23;;;;;;;;;;;;;;;23.18;35.51;101552.94;4230686;28;20003;-65
2023/05/29 05:26:26;;;;;;;;;;;;;;;23.17;35.62;101551.22;4198606;28;19926;-66
2023/05/29 05:28:28;;;;;;;;;;;;;;;23.17;35.84;101556.59;4144636;28;19974;-66
2023/05/29 05:30:29;;;;;;;;;;;;;;;23.17;35.62;101558.44;4144924;28;19926;-66
2023/05/29 05:32:31;;;;;;;;;;;;;;;23.15;35.88;101569.25;4144020;28;20387;-66
2023/05/29 05:34:32;;;;;;;;;;;;;;;23.15;35.88;101571.94;4155096;28;20024;-65
2023/05/29 05:36:34;;;;;;;;;;;;;;;23.14;35.66;101565.72;4161228;28;20024;-65
2023/05/29 05:38:36;;;;;;;;;;;;;;;23.13;35.69;101569.34;4153431;28;19926;-66
2023/05/29 05:40:38;;;;;;;;;;;;;;;23.13;35.52;101566.66;4145005;28;19969;-65
2023/05/29 05:42:39;;;;;;;;;;;;;;;23.11;35.67;101571.31;4143370;28;19925;-65
2023/05/29 05:44:41;;;;;;;;;;;;;;;23.11;35.55;101562.41;4144960;28;19929;-65
2023/05/29 05:46:42;;;;;;;;;;;;;;;23.10;35.58;101560.72;4145138;28;20077;-65
2023/05/29 05:48:44;;;;;;;;;;;;;;;23.09;35.69;101569.72;4145022;28;19926;-66
2023/05/29 05:50:46;;;;;;;;;;;;;;;23.08;35.87;101574.22;4144696;28;19926;-65
2023/05/29 05:52:47;;;;;;;;;;;;;;;23.08;35.90;101573.38;4143932;28;20267;-65
2023/05/29 05:54:49;;;;;;;;;;;;;;;23.06;35.85;101570.81;4145152;28;19925;-65
2023/05/29 05:56:50;;;;;;;;;;;;;;;23.06;35.74;101572.63;4144729;28;19926;-65
2023/05/29 05:58:52;;;;;;;;;;;;;;;23.06;35.71;101572.63;4144611;28;19977;-65
2023/05/29 06:00:53;;;;;;;;;;;;;;;23.05;35.76;101571.78;4144726;28;19930;-64
2023/05/29 06:02:55;;;;;;;;;;;;;;;23.04;35.85;101580.81;4143757;28;19969;-65
2023/05/29 06:04:57;;;;;;;;;;;;;;;23.02;35.64;101580.06;4144745;28;19931;-65
2023/05/29 06:06:59;;;;;;;;;;;;;;;23.02;36.00;101580.06;4144954;28;20314;-65
2023/05/29 06:09:00;;;;;;;;;;;;;;;23.01;35.93;101583.69;4144877;28;20365;-65
2023/05/29 06:11:02;;;;;;;;;;;;;;;23.02;36.05;101590.78;4144301;28;19955;-66
2023/05/29 06:13:04;;;;;;;;;;;;;;;23.01;35.94;101586.38;4143654;28;19926;-65
2023/05/29 06:15:06;;;;;;;;;;;;;;;23.00;36.10;101584.66;4143503;28;19925;-66
2023/05/29 06:17:08;;;;;;;;;;;;;;;22.99;36.06;101588.34;4144649;28;19932;-66
2023/05/29 06:19:10;;;;;;;;;;;;;;;22.97;35.98;101585.75;4144739;28;19947;-66
2023/05/29 06:21:12;;;;;;;;;;;;;;;22.97;36.09;101590.28;4144549;28;20394;-66
2023/05/29 06:23:13;;;;;;;;;;;;;;;22.96;35.90;101588.56;4143742;28;19976;-66
2023/05/29 06:25:15;;;;;;;;;;;;;;;22.96;35.90;101594.75;4143143;28;20421;-65
2023/05/29 06:27:17;;;;;;;;;;;;;;;22.96;36.00;101596.59;4144546;28;20016;-67
2023/05/29 06:29:19;;;;;;;;;;;;;;;22.94;36.16;101599.41;4144532;28;20283;-66
2023/05/29 06:31:21;;;;;;;;;;;;;;;22.94;35.88;101595.84;4147110;28;20403;-66
2023/05/29 06:33:24;;;;;;;;;;;;;;;22.95;35.77;101602.94;4146661;28;20306;-66
2023/05/29 06:35:25;;;;;;;;;;;;;;;22.94;36.11;101606.59;4163515;28;19926;-66
2023/05/29 06:37:27;;;;;;;;;;;;;;;22.94;35.79;101611.94;4163410;28;19986;-66
2023/05/29 06:39:28;;;;;;;;;;;;;;;22.92;36.05;101609.41;4148413;28;20114;-66
2023/05/29 06:41:30;;;;;;;;;;;;;;;22.92;36.00;101606.72;4147139;28;19931;-67
2023/05/29 06:43:32;;;;;;;;;;;;;;;22.91;36.13;101612.19;4146032;28;20328;-67
2023/05/29 06:45:33;;;;;;;;;;;;;;;22.91;35.93;101606.84;4147284;28;19926;-67
2023/05/29 06:47:35;;;;;;;;;;;;;;;22.90;36.05;101608.63;4147071;28;19940;-66
2023/05/29 06:49:36;;;;;;;;;;;;;;;22.91;36.13;101614.88;4147197;28;19971;-66
2023/05/29 06:51:38;;;;;;;;;;;;;;;22.91;35.98;101625.59;4147212;28;20348;-67
2023/05/29 06:53:39;;;;;;;;;;;;;;;22.90;36.10;101623.88;4146063;28;20435;-66
2023/05/29 06:55:41;;;;;;;;;;;;;;;22.89;36.08;101628.41;4146695;28;19932;-66
2023/05/29 06:57:45;;;;;;;;;;;;;;;22.89;36.25;101628.41;4147037;28;19936;-66
2023/05/29 06:59:47;;;;;;;;;;;;;;;22.88;35.92;101624.00;4147072;28;19926;-67
2023/05/29 07:01:49;;;;;;;;;;;;;;;22.89;36.18;101624.84;4147165;28;19980;-68
2023/05/29 07:03:53;;;;;;;;;;;;;;;22.89;36.04;101627.53;4145761;28;20020;-66
2023/05/29 07:05:55;;;;;;;;;;;;;;;22.89;36.07;101632.91;4146787;28;20000;-66
2023/05/29 07:07:57;;;;;;;;;;;;;;;22.88;35.95;101624.00;4146885;28;20405;-66
2023/05/29 07:09:58;;;;;;;;;;;;;;;22.88;36.26;101626.69;4146375;28;19961;-66
2023/05/29 07:12:00;;;;;;;;;;;;;;;22.88;35.87;101624.00;4146042;28;19971;-67
2023/05/29 07:14:05;;;;;;;;;;;;;;;22.88;36.04;101615.97;4146461;28;20050;-66
2023/05/29 07:16:06;;;;;;;;;;;;;;;22.88;36.06;101623.13;4146852;28;19965;-66
2023/05/29 07:18:25;;;;;;;;;;;;;;;22.89;36.15;101622.16;4146733;28;19925;-66
2023/05/29 07:20:26;;;;;;;;;;;;;;;22.88;36.11;101618.66;4146575;28;20041;-66
2023/05/29 07:22:28;;;;;;;;;;;;;;;22.89;35.87;101619.50;4146156;28;19929;-67
2023/05/29 07:24:29;;;;;;;;;;;;;;;22.88;35.95;101625.81;4146223;28;19948;-66
2023/05/29 07:26:31;;;;;;;;;;;;;;;22.88;35.78;101623.13;4146491;28;19925;-66
2023/05/29 07:28:33;;;;;;;;;;;;;;;22.88;36.00;101626.69;4146334;28;19952;-67
2023/05/29 07:30:34;;;;;;;;;;;;;;;22.88;35.99;101632.06;4146659;28;19978;-67
2023/05/29 07:32:36;;;;;;;;;;;;;;;22.88;36.31;101624.00;4145306;28;20111;-67
2023/05/29 07:34:37;;;;;;;;;;;;;;;22.88;36.18;101631.19;4157230;28;19925;-66
2023/05/29 07:36:56;;;;;;;;;;;;;;;22.88;36.09;101633.88;4162795;28;20314;-67
2023/05/29 07:38:58;;;;;;;;;;;;;;;22.88;36.17;101628.50;4151713;28;19932;-67
2023/05/29 07:41:00;;;;;;;;;;;;;;;22.87;36.15;101627.66;4145919;28;19937;-66
2023/05/29 07:43:01;;;;;;;;;;;;;;;22.88;36.02;101625.81;4144282;28;19926;-66
2023/05/29 07:45:03;;;;;;;;;;;;;;;22.88;36.08;101629.38;4146302;28;20012;-66
2023/05/29 07:47:05;;;;;;;;;;;;;;;22.89;36.05;101624.84;4146424;28;20012;-66
2023/05/29 07:49:06;;;;;;;;;;;;;;;22.88;36.15;101620.47;4146434;28;19929;-66
2023/05/29 07:51:10;;;;;;;;;;;;;;;22.87;36.24;101624.97;4146409;28;20291;-66
2023/05/29 07:53:11;;;;;;;;;;;;;;;22.88;35.87;101625.81;4144788;28;19929;-67
2023/05/29 07:55:13;;;;;;;;;;;;;;;22.87;36.11;101624.97;4146357;28;19983;-66
2023/05/29 07:57:14;;;;;;;;;;;;;;;22.88;36.19;101631.19;4145990;28;19932;-66
2023/05/29 07:59:16;;;;;;;;;;;;;;;22.88;36.21;101634.75;4145973;28;20280;-67
2023/05/29 08:01:18;;;;;;;;;;;;;;;22.88;36.08;101634.75;4146131;28;20396;-67
2023/05/29 08:03:20;;;;;;;;;;;;;;;22.89;36.07;101627.53;4145366;28;19925;-66
2023/05/29 08:05:22;;;;;;;;;;;;;;;22.89;36.07;101627.53;4146240;28;19947;-68
2023/05/29 08:07:24;;;;;;;;;;;;;;;22.89;35.81;101624.84;4145949;28;19972;-67
2023/05/29 08:09:26;;;;;;;;;;;;;;;22.89;35.90;101625.72;4145848;28;19925;-67
2023/05/29 08:11:27;;;;;;;;;;;;;;;22.90;36.14;101629.25;4145856;28;19933;-67
2023/05/29 08:13:30;;;;;;;;;;;;;;;22.89;36.08;101633.78;4144828;28;20422;-67
2023/05/29 08:15:32;;;;;;;;;;;;;;;22.90;36.14;101626.56;4146206;28;20394;-67
2023/05/29 08:17:33;;;;;;;;;;;;;;;22.88;35.82;101624.00;4145776;28;19933;-67
2023/05/29 08:19:35;;;;;;;;;;;;;;;22.90;35.89;101626.56;4146046;28;19987;-67
2023/05/29 08:21:37;;;;;;;;;;;;;;;22.90;36.20;101626.56;4145689;28;19965;-67
2023/05/29 08:23:39;;;;;;;;;;;;;;;22.90;35.93;101623.88;4144735;28;19982;-66
2023/05/29 08:25:41;;;;;;;;;;;;;;;22.90;35.86;101637.31;4145845;28;20091;-67
2023/05/29 08:27:43;;;;;;;;;;;;;;;22.90;36.12;101631.94;4145866;28;19925;-67
2023/05/29 08:29:44;;;;;;;;;;;;;;;22.89;35.98;101630.22;4145799;28;20412;-66
2023/05/29 08:31:46;;;;;;;;;;;;;;;22.90;36.13;101626.56;4145663;28;20248;-67
2023/05/29 08:33:47;;;;;;;;;;;;;;;22.89;36.12;101628.41;4148532;28;20314;-67
2023/05/29 08:35:49;;;;;;;;;;;;;;;22.89;36.06;101633.78;4161804;28;19964;-67
2023/05/29 08:37:50;;;;;;;;;;;;;;;22.90;36.08;101634.63;4159371;28;20023;-67
2023/05/29 08:39:54;;;;;;;;;;;;;;;22.89;35.93;101631.09;4145916;28;19925;-67
2023/05/29 08:42:06;;;;;;;;;;;;;;;22.89;35.95;101627.53;4145492;28;19926;-66
2023/05/29 08:44:12;;;;;;;;;;;;;;;22.89;36.23;101639.13;4144588;28;19929;-67
2023/05/29 08:46:15;;;;;;;;;;;;;;;22.89;35.95;101641.81;4145772;28;19933;-66
2023/05/29 08:48:18;;;;;;;;;;;;;;;22.90;35.92;101631.94;4144389;28;19961;-66
2023/05/29 08:50:21;;;;;;;;;;;;;;;22.89;36.14;101636.47;4145292;28;20398;-64
2023/05/29 08:52:25;;;;;;;;;;;;;;;22.89;36.20;101638.25;4144755;28;19930;-67
2023/05/29 08:54:26;;;;;;;;;;;;;;;22.89;36.27;101631.09;4145267;28;19964;-67
2023/05/29 08:56:29;;;;;;;;;;;;;;;22.90;36.05;101631.94;4145749;28;19925;-67
2023/05/29 08:58:35;;;;;;;;;;;;;;;22.88;36.26;101632.06;4145581;28;20016;-66
2023/05/29 09:00:37;;;;;;;;;;;;;;;22.89;36.29;101633.78;4145679;28;20016;-66
2023/05/29 09:02:39;;;;;;;;;;;;;;;22.89;36.13;101631.09;4144671;28;20088;-66
2023/05/29 09:04:48;;;;;;;;;;;;;;;22.89;35.89;101627.53;4145023;28;20418;-66
2023/05/29 09:06:52;;;;;;;;;;;;;;;22.88;36.14;101631.19;4145330;28;19931;-66
2023/05/29 09:08:54;;;;;;;;;;;;;;;22.89;36.24;101633.78;4144999;28;19936;-66
2023/05/29 09:10:56;;;;;;;;;;;;;;;22.89;36.21;101641.81;4145501;28;19978;-68
2023/05/29 09:12:58;;;;;;;;;;;;;;;22.90;36.23;101634.63;4144260;28;19926;-66
2023/05/29 09:15:00;;;;;;;;;;;;;;;22.88;35.99;101645.47;4145352;28;19951;-67
2023/05/29 09:17:03;;;;;;;;;;;;;;;22.89;35.95;101641.81;4145383;28;20020;-66
2023/05/29 09:19:08;;;;;;;;;;;;;;;22.89;36.33;101640.94;4145079;28;19925;-66
2023/05/29 09:21:26;;;;;;;;;;;;;;;22.89;35.99;101630.22;4145227;28;19930;-66
2023/05/29 09:23:28;;;;;;;;;;;;;;;22.90;36.32;101648.03;4144158;28;19969;-67
2023/05/29 09:25:32;;;;;;;;;;;;;;;22.90;36.27;101642.66;4145247;28;19966;-66
2023/05/29 09:27:38;;;;;;;;;;;;;;;22.90;36.29;101635.47;4144854;28;19977;-67
2023/05/29 09:29:42;;;;;;;;;;;;;;;22.89;36.15;101639.13;4145162;28;20060;-67
2023/05/29 09:31:47;;;;;;;;;;;;;;;22.90;36.20;101642.66;4144975;28;19974;-67
2023/05/29 09:33:50;;;;;;;;;;;;;;;22.90;36.28;101635.47;4147859;28;19925;-67
2023/05/29 09:35:51;;;;;;;;;;;;;;;22.89;36.35;101641.81;4161523;28;19966;-67
2023/05/29 09:37:53;;;;;;;;;;;;;;;22.90;36.10;101639.97;4159477;28;20012;-67
2023/05/29 09:39:55;;;;;;;;;;;;;;;22.90;36.17;101648.03;4144948;28;20036;-67
2023/05/29 09:41:56;;;;;;;;;;;;;;;22.90;36.41;101635.47;4144923;28;20402;-66
2023/05/29 09:44:00;;;;;;;;;;;;;;;22.91;36.34;101636.34;4144096;28;20019;-66
2023/05/29 09:46:05;;;;;;;;;;;;;;;22.91;36.38;101637.19;4145336;28;19941;-66
2023/05/29 09:48:08;;;;;;;;;;;;;;;22.91;36.19;101634.50;4144644;28;20002;-66
2023/05/29 09:50:18;;;;;;;;;;;;;;;22.91;36.32;101631.81;4144897;28;19926;-67
2023/05/29 09:52:21;;;;;;;;;;;;;;;22.91;36.41;101631.81;4145040;28;19971;-66
2023/05/29 09:54:23;;;;;;;;;;;;;;;22.93;36.41;101639.75;4142522;28;20007;-67
2023/05/29 09:56:26;;;;;;;;;;;;;;;22.93;36.27;101634.38;4145105;28;19947;-67
2023/05/29 09:58:28;;;;;;;;;;;;;;;22.92;36.43;101630.84;4144997;28;20364;-67
2023/05/29 10:00:30;;;;;;;;;;;;;;;22.93;36.36;101637.94;4144670;28;19948;-67
2023/05/29 10:02:33;;;;;;;;;;;;;;;22.94;36.03;101641.47;4144057;28;19933;-67
2023/05/29 10:04:35;;;;;;;;;;;;;;;22.94;36.42;101633.41;4144623;28;19925;-67
2023/05/29 10:06:38;;;;;;;;;;;;;;;22.93;36.43;101632.56;4147577;28;20020;-67
2023/05/29 10:08:45;;;;;;;;;;;;;;;22.93;36.31;101629.00;4147456;28;20004;-67
2023/05/29 10:10:49;;;;;;;;;;;;;;;22.94;36.27;101628.03;4147571;28;19932;-66
2023/05/29 10:12:51;;;;;;;;;;;;;;;22.92;36.40;101638.91;4146638;28;19979;-67
2023/05/29 10:14:56;;;;;;;;;;;;;;;22.93;36.36;101631.69;4147452;28;20035;-67
2023/05/29 10:16:59;;;;;;;;;;;;;;;22.91;36.44;101623.78;4147022;28;20012;-67
2023/05/29 10:19:07;;;;;;;;;;;;;;;22.93;36.34;101629.00;4147577;28;20037;-67
2023/05/29 10:21:11;;;;;;;;;;;;;;;22.92;36.36;101630.84;4147483;28;19926;-67
2023/05/29 10:23:13;;;;;;;;;;;;;;;22.93;36.09;101623.66;4146587;28;20379;-66
2023/05/29 10:25:17;;;;;;;;;;;;;;;22.95;36.23;101627.09;4147464;28;19926;-66
2023/05/29 10:27:20;;;;;;;;;;;;;;;22.95;36.03;101637.81;4146493;28;19930;-67
2023/05/29 10:29:30;;;;;;;;;;;;;;;22.94;36.45;101618.19;4147385;28;19925;-66